首页
METAR-TAF:

METAR-TAF

机场 :

布瓊布拉國際機場

布琼布拉, 布隆迪

纬度: 03-19S, 经度: 029-19E, 海拔: 782米

METAR: 丢失

时间: 15:23 (13:23 UTC)

预报

该预报发布于2小时和23分钟前的11:00 UTC
预报有效从20日的 12点(UTC)到 21日的 18点(UTC)
风速10节,风向,有时为35节阵风
能见度10公里或以上
少量云层高于3000英尺
多云层高于10000英尺
几率 30% :
短暂存在
从 20日的 13点(UTC)到 20日的 16点(UTC)
能見度: 8000
少量云层高于3000英尺, 积雨云.
阵雨, 雷暴, 雨
成为
从 20日的 18点(UTC)到 20日的 20点(UTC)
风速2节,风向多变
能见度10公里或以上
多云层高于10000英尺
成为
从 21日的 03点(UTC)到 21日的 05点(UTC)
风速10节,风向,有时为25节阵风
能见度10公里或以上
少量云层高于9000英尺
少量云层高于3000英尺
多云层高于10000英尺

TAF: HBBA 201100Z 2012/2118 18010G35KT 9999 FEW030 BKN100 PROB30 TEMPO 2013/2016 8000 FEW030CB SHRA OR TSRA BECMG 2018/2020 VRB02KT 9999 BKN100 BECMG 2103/2105 36004KT 9999 FEW090 BECMG2108/2109 18010G25KT 9999 FEW030 BKN100

超过4000个机场的气象观测和天气预报(METAR&TAF报告)。

可查询的气象台以黄色和红色小点在地图上表示。

将鼠标移到小点上方,可查看气象台名称。

然后点击查看天气观测和预报。

如需切换地图:点击带黑十字的绿色按钮放大地图;点击带横线的绿色按钮缩小地图;或者点击绿色箭头查看邻近地区的地图。


METAR-TAF: